Clinton, Indiana
Current Conditions -  °F | °C
As of 3:55 PM on Saturday 25 Oct 2014 (Local Time) from KPRG Reporting Station
Clear Clear  
Wind Chill: 79°   Ceiling: Unl
Heat Index: 79°   Visibility: 10mi
Dew Point: 49°   Wind: 10mph
Humidity: 36%   Direction: 280°W
Pressure: 29.97"   Gusts: NA
Location:  39.66°N, 87.4°W
Report Text: KPRG 251955Z AUTO 28009KT 10SM CLR 26/10 A2997 RMK AO2 T02600097
Loading
Personal Weather Stations






























Interactive Weather Map
Tropical Storm Tracking
New forecast layout! Learn more

10-Day Weather Forecast

Advertisements
Track Severe Weather on mobile